createdAt,value
2018-02-25T00:00:17.896Z,99.90
2018-02-25T00:02:46.123Z,99.90
2018-02-25T00:05:15.047Z,99.90
2018-02-25T00:07:43.953Z,99.90
2018-02-25T00:10:12.989Z,99.90
2018-02-25T00:12:41.134Z,99.90
2018-02-25T00:15:09.255Z,99.90
2018-02-25T00:17:37.394Z,99.90
2018-02-25T00:20:05.581Z,99.90
2018-02-25T00:22:33.726Z,99.90
2018-02-25T00:25:01.855Z,99.90
2018-02-25T00:27:30.750Z,99.90
2018-02-25T00:29:59.645Z,99.90
2018-02-25T00:32:28.536Z,99.90
2018-02-25T00:34:56.673Z,99.90
2018-02-25T00:37:24.802Z,99.90
2018-02-25T00:39:52.923Z,99.90
2018-02-25T00:42:21.083Z,99.90
2018-02-25T00:44:49.220Z,99.90
2018-02-25T00:47:17.354Z,99.90
2018-02-25T00:49:46.257Z,99.90
2018-02-25T00:52:14.374Z,99.90
2018-02-25T00:54:42.520Z,99.90
2018-02-25T00:57:10.658Z,99.90
2018-02-25T00:59:39.573Z,99.90
2018-02-25T01:02:07.696Z,99.90
2018-02-25T01:04:35.837Z,99.90
2018-02-25T01:07:03.999Z,99.90
2018-02-25T01:09:32.862Z,99.90
2018-02-25T01:12:00.993Z,99.90
2018-02-25T01:14:29.146Z,99.90
2018-02-25T01:16:57.261Z,99.90
2018-02-25T01:19:26.171Z,99.90
2018-02-25T01:21:54.309Z,99.90
2018-02-25T01:24:22.437Z,99.90
2018-02-25T01:26:50.579Z,99.90
2018-02-25T01:29:19.480Z,99.90
2018-02-25T01:31:47.748Z,99.90
2018-02-25T01:34:15.877Z,99.90
2018-02-25T01:36:45.195Z,99.90
2018-02-25T01:39:14.092Z,99.90
2018-02-25T01:41:42.342Z,99.90
2018-02-25T01:44:11.988Z,99.90
2018-02-25T01:46:40.125Z,99.90
2018-02-25T01:49:09.754Z,99.90
2018-02-25T01:51:37.903Z,99.90
2018-02-25T01:54:06.055Z,99.90
2018-02-25T01:56:34.181Z,99.90
2018-02-25T01:59:02.457Z,99.90
2018-02-25T02:01:30.784Z,99.90
2018-02-25T02:03:58.889Z,99.90
2018-02-25T02:06:28.029Z,99.90
2018-02-25T02:08:56.205Z,99.90
2018-02-25T02:11:24.326Z,99.90
2018-02-25T02:13:53.229Z,99.90
2018-02-25T02:16:21.360Z,99.90
2018-02-25T02:19:04.406Z,99.90
2018-02-25T02:21:33.296Z,99.90
2018-02-25T02:24:02.211Z,99.90
2018-02-25T02:26:30.343Z,99.90
2018-02-25T02:28:59.248Z,99.90
2018-02-25T02:31:28.142Z,99.90
2018-02-25T02:33:56.285Z,99.90
2018-02-25T02:36:24.413Z,99.90
2018-02-25T02:38:52.549Z,99.90
2018-02-25T02:41:21.453Z,99.90
2018-02-25T02:43:49.607Z,99.90
2018-02-25T02:46:18.513Z,99.90
2018-02-25T02:48:46.634Z,99.90
2018-02-25T02:51:14.832Z,99.90
2018-02-25T02:53:42.956Z,99.90
2018-02-25T02:56:11.088Z,99.90
2018-02-25T02:58:40.027Z,99.90
2018-02-25T03:01:08.876Z,99.90
2018-02-25T03:03:37.004Z,99.90
2018-02-25T03:06:05.152Z,99.90
2018-02-25T03:08:33.278Z,99.90
2018-02-25T03:11:02.249Z,99.90
2018-02-25T03:13:30.398Z,99.90
2018-02-25T03:15:58.549Z,99.90
2018-02-25T03:18:26.705Z,99.90
2018-02-25T03:20:54.829Z,99.90
2018-02-25T03:23:22.966Z,99.90
2018-02-25T03:25:51.086Z,99.90
2018-02-25T03:28:20.009Z,99.90
2018-02-25T03:30:48.125Z,99.90
2018-02-25T03:33:16.280Z,99.90
2018-02-25T03:35:44.398Z,99.90
2018-02-25T03:38:12.688Z,99.90
2018-02-25T03:40:40.809Z,99.90
2018-02-25T03:43:08.944Z,99.90
2018-02-25T03:45:37.069Z,99.90
2018-02-25T03:48:06.715Z,99.90
2018-02-25T03:50:34.846Z,99.90
2018-02-25T03:53:02.993Z,99.90
2018-02-25T03:55:31.117Z,99.90
2018-02-25T03:58:00.014Z,99.90
2018-02-25T04:00:28.210Z,99.90
2018-02-25T04:02:56.347Z,99.90
2018-02-25T04:05:25.233Z,99.90
2018-02-25T04:07:54.138Z,99.90
2018-02-25T04:10:22.278Z,99.90
2018-02-25T04:12:50.433Z,99.90
2018-02-25T04:15:18.784Z,99.90
2018-02-25T04:17:47.091Z,99.90
2018-02-25T04:20:15.256Z,99.90
2018-02-25T04:22:43.613Z,99.90
2018-02-25T04:25:12.192Z,99.90
2018-02-25T04:27:41.312Z,99.90
2018-02-25T04:30:09.501Z,99.90
2018-02-25T04:32:38.573Z,99.90
2018-02-25T04:35:06.845Z,99.90
2018-02-25T04:37:35.053Z,99.90
2018-02-25T04:40:03.210Z,99.90
2018-02-25T04:42:31.352Z,99.90
2018-02-25T04:44:59.474Z,99.90
2018-02-25T04:47:28.516Z,99.90
2018-02-25T04:49:56.795Z,99.90
2018-02-25T04:52:25.845Z,99.90
2018-02-25T04:54:54.042Z,99.90
2018-02-25T04:57:22.182Z,99.90
2018-02-25T04:59:51.073Z,99.90
2018-02-25T05:02:19.274Z,99.90
2018-02-25T05:04:47.551Z,99.90
2018-02-25T05:07:15.758Z,99.90
2018-02-25T05:09:43.938Z,99.90
2018-02-25T05:12:12.086Z,99.90
2018-02-25T05:14:40.219Z,99.90
2018-02-25T05:17:08.521Z,99.90
2018-02-25T05:19:36.790Z,99.90
2018-02-25T05:22:05.786Z,99.90
2018-02-25T05:24:34.741Z,99.90
2018-02-25T05:27:02.881Z,99.90
2018-02-25T05:29:31.038Z,99.90
2018-02-25T05:31:59.184Z,99.90
2018-02-25T05:34:27.474Z,99.90
2018-02-25T05:36:55.774Z,99.90
2018-02-25T05:39:23.945Z,99.90
2018-02-25T05:41:52.229Z,99.90
2018-02-25T05:44:20.378Z,99.90
2018-02-25T05:46:48.514Z,99.90
2018-02-25T05:49:16.802Z,99.90
2018-02-25T05:51:45.885Z,99.90
2018-02-25T05:54:14.089Z,99.90
2018-02-25T05:56:42.242Z,99.90
2018-02-25T05:59:10.377Z,99.90
2018-02-25T06:01:39.277Z,99.90
2018-02-25T06:04:07.561Z,99.90
2018-02-25T06:06:35.829Z,99.90
2018-02-25T06:09:03.999Z,99.90
2018-02-25T06:11:32.169Z,99.90
2018-02-25T06:14:00.309Z,99.90
2018-02-25T06:16:28.497Z,99.90
2018-02-25T06:18:57.530Z,99.90
2018-02-25T06:21:25.803Z,99.90
2018-02-25T06:23:53.971Z,99.90
2018-02-25T06:26:22.130Z,99.90
2018-02-25T06:28:50.289Z,99.90
2018-02-25T06:31:19.253Z,99.90
2018-02-25T06:33:47.535Z,99.90
2018-02-25T06:36:15.815Z,99.90
2018-02-25T06:38:43.976Z,99.90
2018-02-25T06:41:12.110Z,99.90
2018-02-25T06:43:40.664Z,99.90
2018-02-25T06:46:08.870Z,99.90
2018-02-25T06:48:37.262Z,99.90
2018-02-25T06:51:06.433Z,99.90
2018-02-25T06:53:34.593Z,99.90
2018-02-25T06:56:02.768Z,99.90
2018-02-25T06:58:30.912Z,99.90
2018-02-25T07:00:59.823Z,99.90
2018-02-25T07:03:28.104Z,99.90
2018-02-25T07:05:56.399Z,99.90
2018-02-25T07:08:24.565Z,99.90
2018-02-25T07:10:53.522Z,99.90
2018-02-25T07:13:21.802Z,99.90
2018-02-25T07:15:49.930Z,99.90
2018-02-25T07:18:18.916Z,99.90
2018-02-25T07:20:47.905Z,99.90
2018-02-25T07:23:16.273Z,99.90
2018-02-25T07:25:44.410Z,99.90
2018-02-25T07:28:12.618Z,99.90
2018-02-25T07:30:40.740Z,99.90
2018-02-25T07:33:09.066Z,99.90
2018-02-25T07:35:37.145Z,99.90
2018-02-25T07:38:05.287Z,99.90
2018-02-25T07:40:33.422Z,99.90
2018-02-25T07:43:02.326Z,99.90
2018-02-25T07:45:30.484Z,99.90
2018-02-25T07:47:59.393Z,99.90
2018-02-25T07:50:27.526Z,99.90
2018-02-25T07:52:56.442Z,91.20
2018-02-25T07:55:24.587Z,90.70
2018-02-25T07:57:52.797Z,75.20
2018-02-25T08:00:21.754Z,84.30
2018-02-25T08:02:49.858Z,84.60
2018-02-25T08:05:17.999Z,89.90
2018-02-25T08:07:46.919Z,81.70
2018-02-25T08:10:15.053Z,81.90
2018-02-25T08:12:43.177Z,66.40
2018-02-25T08:15:11.318Z,57.20
2018-02-25T08:17:40.200Z,56.60
2018-02-25T08:20:09.427Z,54.90
2018-02-25T08:22:37.687Z,54.90
2018-02-25T08:25:05.833Z,53.80
2018-02-25T08:27:33.995Z,54.80
2018-02-25T08:30:02.129Z,52.60
2018-02-25T08:32:30.249Z,43.20
2018-02-25T08:34:59.158Z,52.60
2018-02-25T08:37:28.042Z,51.30
2018-02-25T08:39:56.955Z,50.30
2018-02-25T08:42:25.109Z,49.80
2018-02-25T08:44:53.255Z,42.50
2018-02-25T08:47:21.382Z,38.50
2018-02-25T08:49:49.523Z,35.80
2018-02-25T08:52:17.637Z,33.30
2018-02-25T08:54:45.748Z,31.70
2018-02-25T08:57:14.645Z,31.20
2018-02-25T08:59:43.528Z,31.50
2018-02-25T09:02:12.425Z,30.50
2018-02-25T09:04:40.556Z,30.30
2018-02-25T09:07:08.706Z,29.30
2018-02-25T09:09:36.840Z,27.90
2018-02-25T09:12:05.750Z,28.70
2018-02-25T09:14:33.867Z,28.70
2018-02-25T09:17:01.995Z,30.40
2018-02-25T09:19:30.155Z,32.20
2018-02-25T09:21:58.289Z,29.20
2018-02-25T09:24:27.225Z,27.50
2018-02-25T09:26:55.369Z,27.20
2018-02-25T09:29:23.566Z,27.70
2018-02-25T09:31:51.734Z,28.70
2018-02-25T09:34:19.929Z,29.10
2018-02-25T09:36:48.060Z,29.50
2018-02-25T09:39:16.181Z,29.80
2018-02-25T09:41:44.666Z,28.60
2018-02-25T09:44:12.796Z,27.20
2018-02-25T09:46:40.936Z,27.00
2018-02-25T09:49:09.082Z,26.00
2018-02-25T09:51:37.360Z,26.70
2018-02-25T09:54:06.355Z,25.60
2018-02-25T09:56:34.564Z,25.60
2018-02-25T09:59:03.029Z,25.40
2018-02-25T10:01:31.211Z,24.30
2018-02-25T10:04:00.110Z,25.30
2018-02-25T10:06:28.282Z,25.30
2018-02-25T10:08:56.560Z,24.90
2018-02-25T10:11:24.701Z,23.90
2018-02-25T10:13:52.845Z,23.20
2018-02-25T10:16:21.002Z,23.30
2018-02-25T10:18:49.260Z,24.20
2018-02-25T10:21:17.413Z,23.30
2018-02-25T10:23:46.313Z,22.50
2018-02-25T10:26:14.439Z,22.50
2018-02-25T10:28:42.589Z,22.50
2018-02-25T10:31:10.794Z,24.20
2018-02-25T10:33:39.765Z,22.70
2018-02-25T10:36:08.278Z,22.70
2018-02-25T10:38:37.918Z,22.40
2018-02-25T10:41:06.037Z,22.30
2018-02-25T10:43:34.177Z,22.50
2018-02-25T10:46:06.193Z,22.40
2018-02-25T10:48:50.399Z,20.80
2018-02-25T10:51:18.549Z,20.80
2018-02-25T10:53:46.690Z,20.20
2018-02-25T10:56:15.590Z,19.90
2018-02-25T10:58:43.700Z,19.80
2018-02-25T11:01:11.826Z,19.90
2018-02-25T11:03:39.961Z,21.10
2018-02-25T11:06:08.106Z,21.20
2018-02-25T11:08:36.217Z,21.30
2018-02-25T11:11:05.155Z,19.10
2018-02-25T11:13:33.272Z,19.10
2018-02-25T11:16:01.393Z,19.40
2018-02-25T11:18:29.515Z,19.50
2018-02-25T11:20:57.718Z,18.40
2018-02-25T11:23:25.834Z,18.30
2018-02-25T11:25:53.992Z,19.80
2018-02-25T11:28:22.120Z,19.50
2018-02-25T11:30:51.032Z,19.20
2018-02-25T11:33:19.162Z,19.20
2018-02-25T11:35:47.295Z,18.10
2018-02-25T11:38:15.414Z,19.20
2018-02-25T11:40:44.310Z,20.10
2018-02-25T11:43:13.238Z,19.70
2018-02-25T11:45:41.394Z,19.70
2018-02-25T11:48:09.559Z,20.30
2018-02-25T11:50:37.697Z,19.00
2018-02-25T11:53:05.810Z,18.90
2018-02-25T11:55:33.936Z,18.40
2018-02-25T11:58:02.046Z,18.70
2018-02-25T12:00:30.197Z,18.90
2018-02-25T12:02:59.090Z,19.60
2018-02-25T12:05:27.995Z,18.70
2018-02-25T12:07:56.171Z,18.70
2018-02-25T12:10:24.303Z,18.50
2018-02-25T12:12:52.418Z,18.60
2018-02-25T12:15:20.571Z,17.40
2018-02-25T12:17:48.800Z,18.70
2018-02-25T12:20:16.941Z,18.50
2018-02-25T12:22:45.063Z,17.80
2018-02-25T12:25:13.963Z,16.90
2018-02-25T12:27:42.147Z,16.90
2018-02-25T12:30:10.287Z,18.20
2018-02-25T12:32:38.417Z,18.50
2018-02-25T12:35:06.558Z,17.70
2018-02-25T12:37:34.686Z,18.40
2018-02-25T12:40:02.844Z,17.60
2018-02-25T12:42:30.970Z,17.60
2018-02-25T12:44:59.867Z,16.80
2018-02-25T12:47:28.746Z,16.00
2018-02-25T12:49:57.649Z,17.00
2018-02-25T12:52:25.796Z,17.00
2018-02-25T12:54:53.957Z,16.10
2018-02-25T12:57:22.088Z,15.50
2018-02-25T12:59:50.225Z,16.10
2018-02-25T13:02:19.138Z,17.10
2018-02-25T13:04:47.264Z,17.00
2018-02-25T13:07:15.422Z,16.70
2018-02-25T13:09:43.745Z,17.30
2018-02-25T13:12:12.629Z,16.80
2018-02-25T13:14:40.771Z,16.70
2018-02-25T13:17:08.900Z,15.80
2018-02-25T13:19:37.049Z,16.10
2018-02-25T13:22:05.196Z,15.50
2018-02-25T13:24:33.409Z,16.30
2018-02-25T13:27:01.558Z,17.00
2018-02-25T13:29:29.725Z,17.30
2018-02-25T13:31:58.733Z,18.80
2018-02-25T13:34:26.843Z,18.80
2018-02-25T13:36:54.968Z,19.90
2018-02-25T13:39:23.095Z,20.20
2018-02-25T13:41:51.258Z,20.80
2018-02-25T13:44:19.384Z,19.70
2018-02-25T13:46:47.516Z,19.60
2018-02-25T13:49:15.633Z,19.90
2018-02-25T13:51:43.799Z,20.20
2018-02-25T13:54:11.924Z,19.90
2018-02-25T13:56:40.170Z,20.70
2018-02-25T13:59:08.525Z,20.50
2018-02-25T14:01:36.752Z,20.30
2018-02-25T14:04:04.877Z,20.40
2018-02-25T14:06:33.002Z,20.00
2018-02-25T14:09:01.117Z,19.90
2018-02-25T14:11:29.271Z,19.60
2018-02-25T14:13:58.169Z,18.50
2018-02-25T14:16:26.313Z,18.50
2018-02-25T14:18:54.793Z,18.80
2018-02-25T14:21:22.914Z,19.50
2018-02-25T14:23:51.924Z,20.60
2018-02-25T14:26:20.033Z,21.10
2018-02-25T14:28:48.924Z,19.20
2018-02-25T14:31:17.899Z,18.70
2018-02-25T14:33:46.031Z,18.70
2018-02-25T14:36:14.149Z,18.70
2018-02-25T14:38:43.029Z,19.10
2018-02-25T14:41:11.167Z,19.10
2018-02-25T14:43:39.284Z,19.50
2018-02-25T14:46:08.184Z,19.80
2018-02-25T14:48:37.077Z,20.30
2018-02-25T14:51:05.200Z,20.30
2018-02-25T14:53:33.374Z,19.80
2018-02-25T14:56:01.522Z,19.30
2018-02-25T14:58:29.667Z,19.40
2018-02-25T15:00:57.908Z,19.50
2018-02-25T15:03:27.653Z,20.40
2018-02-25T15:05:55.834Z,20.40
2018-02-25T15:08:23.904Z,20.20
2018-02-25T15:10:52.036Z,19.80
2018-02-25T15:13:21.671Z,20.30
2018-02-25T15:15:50.566Z,20.10
2018-02-25T15:18:18.700Z,20.00
2018-02-25T15:20:46.842Z,20.00
2018-02-25T15:23:14.943Z,20.50
2018-02-25T15:25:43.088Z,21.10
2018-02-25T15:28:11.231Z,21.20
2018-02-25T15:30:39.360Z,21.70
2018-02-25T15:33:07.494Z,22.00
2018-02-25T15:35:35.617Z,22.40
2018-02-25T15:38:03.745Z,22.50
2018-02-25T15:40:31.868Z,22.50
2018-02-25T15:43:00.783Z,23.70
2018-02-25T15:45:28.909Z,23.70
2018-02-25T15:47:57.043Z,23.50
2018-02-25T15:50:25.238Z,23.30
2018-02-25T15:52:53.373Z,23.40
2018-02-25T15:55:21.498Z,23.20
2018-02-25T15:57:49.661Z,22.80
2018-02-25T16:00:17.913Z,23.10
2018-02-25T16:02:46.060Z,22.90
2018-02-25T16:05:14.184Z,23.00
2018-02-25T16:07:42.316Z,23.40
2018-02-25T16:10:10.446Z,23.00
2018-02-25T16:12:39.358Z,22.60
2018-02-25T16:15:07.505Z,22.60
2018-02-25T16:17:36.401Z,23.50
2018-02-25T16:20:05.405Z,24.00
2018-02-25T16:22:33.556Z,24.00
2018-02-25T16:25:02.465Z,23.60
2018-02-25T16:27:30.595Z,23.60
2018-02-25T16:29:58.722Z,23.10
2018-02-25T16:32:26.846Z,23.20
2018-02-25T16:34:55.776Z,23.40
2018-02-25T16:37:23.896Z,23.20
2018-02-25T16:39:52.049Z,23.40
2018-02-25T16:42:20.181Z,23.40
2018-02-25T16:44:48.304Z,23.40
2018-02-25T16:47:17.949Z,23.90
2018-02-25T16:49:46.078Z,23.90
2018-02-25T16:52:14.436Z,24.10
2018-02-25T16:54:42.652Z,23.90
2018-02-25T16:57:11.555Z,24.20
2018-02-25T16:59:39.705Z,24.20
2018-02-25T17:02:07.863Z,24.20
2018-02-25T17:04:36.193Z,24.50
2018-02-25T17:07:04.340Z,24.80
2018-02-25T17:09:33.010Z,25.30
2018-02-25T17:12:01.135Z,25.50
2018-02-25T17:14:29.267Z,26.00
2018-02-25T17:16:57.431Z,26.20
2018-02-25T17:19:25.586Z,26.60
2018-02-25T17:21:53.820Z,27.00
2018-02-25T17:24:21.991Z,27.40
2018-02-25T17:26:50.144Z,27.80
2018-02-25T17:29:18.282Z,28.10
2018-02-25T17:31:46.429Z,28.50
2018-02-25T17:34:14.589Z,29.00
2018-02-25T17:36:42.717Z,29.30
2018-02-25T17:39:11.601Z,31.80
2018-02-25T17:41:40.518Z,33.70
2018-02-25T17:44:08.691Z,33.80
2018-02-25T17:46:36.873Z,36.30
2018-02-25T17:49:04.993Z,37.20
2018-02-25T17:51:33.109Z,40.80
2018-02-25T17:54:01.245Z,48.40
2018-02-25T17:56:29.370Z,54.60
2018-02-25T17:58:57.530Z,59.00
2018-02-25T18:01:25.645Z,66.40
2018-02-25T18:03:53.871Z,69.00
2018-02-25T18:06:22.019Z,67.60
2018-02-25T18:08:50.196Z,72.60
2018-02-25T18:11:18.326Z,72.10
2018-02-25T18:13:46.485Z,79.60
2018-02-25T18:16:14.618Z,76.70
2018-02-25T18:18:43.534Z,84.30
2018-02-25T18:21:11.682Z,84.40
2018-02-25T18:23:39.831Z,86.90
2018-02-25T18:26:08.717Z,87.70
2018-02-25T18:28:37.643Z,89.90
2018-02-25T18:31:05.768Z,89.70
2018-02-25T18:33:33.933Z,90.10
2018-02-25T18:36:02.073Z,90.10
2018-02-25T18:38:30.243Z,89.20
2018-02-25T18:40:58.415Z,91.00
2018-02-25T18:43:26.503Z,92.60
2018-02-25T18:45:54.658Z,91.50
2018-02-25T18:48:22.797Z,92.40
2018-02-25T18:50:51.058Z,92.10
2018-02-25T18:53:19.957Z,91.60
2018-02-25T18:55:48.113Z,91.70
2018-02-25T18:58:17.006Z,91.70
2018-02-25T19:00:45.897Z,92.10
2018-02-25T19:03:14.784Z,92.90
2018-02-25T19:05:43.688Z,91.20
2018-02-25T19:08:11.808Z,91.20
2018-02-25T19:10:40.182Z,90.60
2018-02-25T19:13:08.397Z,87.70
2018-02-25T19:15:37.305Z,90.50
2018-02-25T19:18:05.430Z,90.60
2018-02-25T19:20:34.676Z,90.40
2018-02-25T19:23:02.791Z,92.00
2018-02-25T19:25:30.968Z,91.90
2018-02-25T19:27:59.103Z,92.30
2018-02-25T19:30:27.243Z,92.00
2018-02-25T19:32:55.385Z,92.60
2018-02-25T19:35:23.518Z,92.90
2018-02-25T19:37:57.231Z,93.40
2018-02-25T19:40:30.931Z,92.40
2018-02-25T19:42:59.288Z,92.90
2018-02-25T19:45:27.432Z,92.40
2018-02-25T19:47:56.322Z,94.70
2018-02-25T19:50:25.389Z,93.00
2018-02-25T19:52:53.493Z,93.00
2018-02-25T19:55:22.498Z,93.70
2018-02-25T19:57:50.653Z,93.70
2018-02-25T20:00:18.776Z,94.30
2018-02-25T20:02:46.945Z,94.40
2018-02-25T20:05:15.071Z,94.80
2018-02-25T20:07:43.220Z,94.30
2018-02-25T20:10:11.337Z,94.30
2018-02-25T20:12:39.496Z,95.00
2018-02-25T20:15:07.620Z,95.30
2018-02-25T20:17:35.756Z,95.40
2018-02-25T20:20:03.883Z,95.80
2018-02-25T20:22:32.799Z,95.60
2018-02-25T20:25:01.681Z,95.90
2018-02-25T20:27:30.585Z,96.30
2018-02-25T20:29:58.716Z,96.30
2018-02-25T20:32:28.358Z,97.20
2018-02-25T20:34:56.532Z,97.20
2018-02-25T20:37:24.727Z,97.60
2018-02-25T20:39:52.894Z,97.60
2018-02-25T20:42:21.076Z,97.60
2018-02-25T20:44:49.672Z,99.00
2018-02-25T20:47:17.802Z,99.50
2018-02-25T20:49:46.686Z,99.30
2018-02-25T20:52:15.586Z,98.70
2018-02-25T20:54:44.607Z,99.60
2018-02-25T20:57:12.747Z,99.60
2018-02-25T20:59:40.860Z,99.20
2018-02-25T21:02:08.998Z,99.90
2018-02-25T21:04:37.113Z,99.90
2018-02-25T21:07:05.247Z,99.90
2018-02-25T21:09:33.383Z,99.90
2018-02-25T21:12:02.273Z,99.90
2018-02-25T21:14:31.161Z,99.90
2018-02-25T21:16:59.315Z,99.90
2018-02-25T21:19:27.442Z,99.90
2018-02-25T21:21:55.610Z,99.90
2018-02-25T21:24:23.768Z,99.90
2018-02-25T21:26:51.857Z,99.90
2018-02-25T21:29:19.977Z,99.90
2018-02-25T21:31:48.144Z,99.90
2018-02-25T21:34:16.292Z,99.90
2018-02-25T21:36:44.422Z,99.90
2018-02-25T21:39:13.285Z,99.90
2018-02-25T21:41:42.556Z,99.90
2018-02-25T21:44:10.721Z,99.90
2018-02-25T21:46:38.841Z,99.90
2018-02-25T21:49:07.742Z,99.90
2018-02-25T21:51:36.642Z,99.90
2018-02-25T21:54:04.759Z,99.90
2018-02-25T21:59:38.605Z,98.40
2018-02-25T22:02:13.163Z,96.90
2018-02-25T22:04:41.361Z,96.80
2018-02-25T22:07:10.215Z,97.00
2018-02-25T22:09:38.346Z,97.00
2018-02-25T22:12:06.510Z,97.00
2018-02-25T22:14:34.629Z,99.10
2018-02-25T22:17:02.779Z,97.20
2018-02-25T22:19:30.910Z,97.60
2018-02-25T22:21:59.105Z,97.10
2018-02-25T22:24:27.246Z,98.10
2018-02-25T22:26:55.366Z,97.70
2018-02-25T22:29:24.253Z,97.40
2018-02-25T22:31:53.150Z,99.60
2018-02-25T22:34:22.042Z,98.20
2018-02-25T22:36:50.946Z,98.90
2018-02-25T22:39:19.094Z,98.90
2018-02-25T22:41:47.258Z,98.90
2018-02-25T22:44:16.149Z,99.30
2018-02-25T22:46:45.053Z,99.70
2018-02-25T22:49:13.943Z,98.90
2018-02-25T22:51:42.080Z,98.80
2018-02-25T22:54:10.216Z,99.60
2018-02-25T22:56:38.362Z,98.20
2018-02-25T22:59:07.252Z,99.80
2018-02-25T23:01:35.386Z,99.80
2018-02-25T23:04:03.511Z,99.60
2018-02-25T23:06:31.637Z,99.90
2018-02-25T23:08:59.794Z,99.90
2018-02-25T23:11:27.908Z,99.90
2018-02-25T23:13:56.045Z,99.90
2018-02-25T23:16:24.175Z,99.90
2018-02-25T23:18:52.305Z,99.90
2018-02-25T23:21:21.209Z,99.90
2018-02-25T23:23:49.372Z,99.90
2018-02-25T23:26:17.532Z,99.90
2018-02-25T23:28:45.685Z,99.90
2018-02-25T23:31:13.816Z,99.90
2018-02-25T23:33:41.963Z,99.90
2018-02-25T23:36:10.853Z,99.90
2018-02-25T23:38:39.003Z,99.90
2018-02-25T23:41:07.114Z,99.90
2018-02-25T23:43:36.016Z,99.90
2018-02-25T23:46:04.253Z,99.90
2018-02-25T23:48:32.386Z,99.90
2018-02-25T23:51:00.847Z,99.90
2018-02-25T23:53:29.129Z,99.90
2018-02-25T23:55:57.252Z,99.90
2018-02-25T23:58:26.154Z,99.90
